Flight Track Log - Related Links

Times and Time Zones

All times are in EDT time to prevent confusion due to time zone crossing. See the EMD24 flight status page for this flight to view local times or setup timezone preferences in your user account.

Time Position Orientation Groundspeed Altitude Reporting Facility
EDT Latitude Longitude Course Direction KTS MPH feet Rate Location/Type
Fri 05:58:20 PM 39.5667 -104.8000 90° East 151 174 7,800  Level Denver TRACON
Fri 05:59:20 PM 39.5333 -104.7500 131° Southeast 196 226 8,000 158 Climbing Denver TRACON
Fri 06:00:14 PM 39.5000 -104.7000 131° Southeast 212 244 8,100  Climbing Denver TRACON
Fri 06:01:09 PM 39.4647 -104.6533 134° Southeast 209 241 8,000 -51 Descending Denver Center
Fri 06:02:11 PM 39.4300 -104.5953 128° Southeast 206 237 8,000  Level Denver Center
Fri 06:03:00 PM 39.8000 -104.6170 90° East  Level FlightAware Approximate
Fri 06:03:13 PM 39.3972 -104.5289 123° Southeast 205 236 8,000  Level Denver Center
Fri 06:04:15 PM 39.3906 -104.4594 97° East 204 235 8,000 435 Level Denver Center
Fri 06:05:17 PM 39.4186 -104.4039 57° Northeast 188 216 8,900 1,065 Climbing Denver Center
Fri 06:06:19 PM 39.4372 -104.3456 68° East 173 199 10,200 1,065 Climbing Denver Center
Fri 06:07:21 PM 39.4289 -104.2847 100° East 172 198 11,100 823 Climbing Denver Center
Fri 06:08:23 PM 39.4228 -104.2186 97° East 173 199 11,900 435 Climbing Denver Center
Fri 06:09:25 PM 39.4158 -104.1483 97° East 195 224 12,000 290 Climbing Denver Center
Fri 06:10:27 PM 39.4081 -104.0644 97° East 218 251 12,500 919 Climbing Denver Center
Fri 06:11:29 PM 39.4017 -103.9992 97° East 185 213 13,900 1,065 Climbing Denver Center
Fri 06:12:31 PM 39.3994 -103.9375 93° East 173 199 14,700 871 Climbing Denver Center
Fri 06:13:33 PM 39.3992 -103.8697 90° East 175 201 15,700 1,016 Climbing Denver Center
Fri 06:14:35 PM 39.4000 -103.8086 89° East 170 196 16,800 629 Climbing Denver Center
Fri 06:15:37 PM 39.3994 -103.7375 91° East 180 207 17,000 98 Climbing Denver Center
Fri 06:16:38 PM 39.3978 -103.6742 92° East 207 238 17,000  Level Denver Center
Fri 06:17:41 PM 39.3758 -103.5731 106° East 239 275 17,000  Level Denver Center
Fri 06:18:42 PM 39.3544 -103.4897 108° East 246 283 17,000  Level Denver Center
Fri 06:19:44 PM 39.3353 -103.4033 106° East 248 285 17,000  Level Denver Center
Fri 06:20:46 PM 39.3192 -103.3186 104° East 246 283 17,000  Level Denver Center
Fri 06:21:48 PM 39.2911 -103.2156 109° East 254 292 17,000  Level Denver Center
Fri 06:22:50 PM 39.2506 -103.1381 124° Southeast 259 298 17,000 -48 Level Denver Center
Fri 06:23:52 PM 39.2089 -103.0622 125° Southeast 260 299 16,900 -48 Descending Denver Center
Fri 06:24:54 PM 39.1628 -102.9886 129° Southeast 263 303 16,900  Level Denver Center
Fri 06:25:56 PM 39.1189 -102.9142 127° Southeast 263 303 16,900  Level Denver Center
Fri 06:26:58 PM 39.0944 -102.8275 110° East 260 299 16,900  Level Denver Center
Fri 06:28:00 PM 39.0750 -102.7250 104° East 255 293 16,900  Level Denver Center
Fri 06:29:02 PM 39.0561 -102.6347 105° East 255 293 16,900  Level Denver Center
Fri 06:30:04 PM 39.0392 -102.5486 104° East 259 298 16,900  Level Denver Center
Fri 06:31:06 PM 39.0200 -102.4514 104° East 253 291 16,900  Level Denver Center
Fri 06:32:08 PM 39.0403 -102.3761 71° East 236 272 16,900  Level Denver Center
Fri 06:33:10 PM 39.0778 -102.2983 58° Northeast 229 264 16,900  Level Denver Center
Fri 06:34:12 PM 39.1094 -102.2331 58° Northeast 226 260 16,900  Level Denver Center
Fri 06:35:14 PM 39.1442 -102.1531 61° Northeast 230 265 16,900  Level Denver Center
Fri 06:36:15 PM 39.1789 -102.0878 56° Northeast 231 266 16,900 98 Level Denver Center
Fri 06:37:17 PM 39.2256 -102.0211 48° Northeast 224 258 17,100 -823 Climbing Denver Center
Fri 06:38:19 PM 39.2581 -101.9725 49° Northeast 225 259 15,200 -3,145 Descending Denver Center
Fri 06:39:21 PM 39.3058 -101.9008 49° Northeast 236 272 10,600 -2,661 Descending Denver Center
Fri 06:40:23 PM 39.3628 -101.8431 38° Northeast 233 268 9,700 -871 Descending Denver Center
Fri 06:42:00 PM 39.3706 -101.6990 63° Northeast  Level Estimated
Fri 06:49:00 PM 39.3706 -101.6990 63° Northeast  Level Estimated

Login

Don't have an account? Register now (free) for customized features, flight alerts, and more!